TimeEDT,TemperatureF,Dew PointF,Humidity,Sea Level PressureIn,VisibilityMPH,Wind Direction,Wind SpeedMPH,Gust SpeedMPH,PrecipitationIn,Events,Conditions,WindDirDegrees,DateUTC
12:55 AM,62.4,55.6,78,29.95,10.0,West,4.6,-,N/A,,Clear,260,2013-05-10 04:55:00
1:15 AM,62.2,55.6,79,29.95,10.0,WSW,3.5,-,N/A,,Clear,250,2013-05-10 05:15:00
1:35 AM,61.9,55.6,80,29.94,10.0,West,3.5,-,N/A,,Clear,260,2013-05-10 05:35:00
1:55 AM,61.7,55.8,81,29.94,10.0,West,3.5,-,N/A,,Clear,260,2013-05-10 05:55:00
2:15 AM,61.0,55.8,83,29.95,10.0,Calm,Calm,-,N/A,,Clear,0,2013-05-10 06:15:00
2:35 AM,59.9,55.8,86,29.95,10.0,Calm,Calm,-,N/A,,Clear,0,2013-05-10 06:35:00
2:55 AM,59.4,55.6,87,29.95,10.0,Calm,Calm,-,N/A,,Clear,0,2013-05-10 06:55:00
3:15 AM,58.6,55.4,89,29.95,10.0,Calm,Calm,-,N/A,,Clear,0,2013-05-10 07:15:00
3:35 AM,58.1,55.0,90,29.96,7.0,Calm,Calm,-,N/A,,Clear,0,2013-05-10 07:35:00
3:55 AM,58.1,55.4,91,29.96,7.0,Calm,Calm,-,N/A,,Clear,0,2013-05-10 07:55:00
4:15 AM,57.7,55.0,91,29.96,7.0,Calm,Calm,-,N/A,,Clear,0,2013-05-10 08:15:00
4:35 AM,58.3,55.8,91,29.96,7.0,Calm,Calm,-,N/A,,Clear,0,2013-05-10 08:35:00
4:55 AM,57.9,55.4,91,29.96,7.0,Calm,Calm,-,N/A,,Clear,0,2013-05-10 08:55:00
5:15 AM,57.2,55.0,92,29.97,5.0,Calm,Calm,-,N/A,,Clear,0,2013-05-10 09:15:00
5:35 AM,56.7,54.7,93,29.98,5.0,Calm,Calm,-,N/A,,Clear,0,2013-05-10 09:35:00
5:55 AM,56.8,55.0,94,29.98,5.0,Calm,Calm,-,N/A,,Clear,0,2013-05-10 09:55:00
6:15 AM,56.8,55.0,94,29.99,4.0,Calm,Calm,-,N/A,,Clear,0,2013-05-10 10:15:00
6:35 AM,57.4,55.6,94,29.99,4.0,Calm,Calm,-,N/A,,Clear,0,2013-05-10 10:35:00
6:55 AM,58.6,56.5,93,29.99,5.0,Calm,Calm,-,N/A,,Clear,0,2013-05-10 10:55:00
7:15 AM,59.9,57.2,91,30.00,5.0,Calm,Calm,-,N/A,,Clear,0,2013-05-10 11:15:00
7:35 AM,61.7,58.1,88,30.00,7.0,WNW,6.9,-,N/A,,Clear,290,2013-05-10 11:35:00
7:55 AM,63.0,58.1,84,30.00,10.0,WNW,4.6,-,N/A,,Clear,290,2013-05-10 11:55:00
8:15 AM,64.4,58.1,80,30.00,10.0,Calm,Calm,-,N/A,,Clear,0,2013-05-10 12:15:00
8:35 AM,65.1,57.7,77,30.00,10.0,West,3.5,-,N/A,,Clear,260,2013-05-10 12:35:00
8:55 AM,66.6,57.6,73,30.00,10.0,Calm,Calm,-,N/A,,Clear,0,2013-05-10 12:55:00
9:15 AM,68.2,57.7,69,30.00,10.0,Calm,Calm,-,N/A,,Clear,0,2013-05-10 13:15:00
9:35 AM,69.8,58.1,66,30.00,10.0,West,3.5,-,N/A,,Clear,280,2013-05-10 13:35:00
9:55 AM,70.5,57.7,64,30.00,10.0,Calm,Calm,-,N/A,,Clear,0,2013-05-10 13:55:00
10:35 AM,73.0,56.5,56,29.99,10.0,East,3.5,-,N/A,,Clear,90,2013-05-10 14:35:00
10:55 AM,73.8,55.9,54,30.00,10.0,Calm,Calm,-,N/A,,Clear,0,2013-05-10 14:55:00
11:15 AM,74.8,56.1,52,29.99,10.0,Calm,Calm,-,N/A,,Clear,0,2013-05-10 15:15:00
11:35 AM,76.1,54.0,46,29.99,10.0,WSW,4.6,-,N/A,,Clear,250,2013-05-10 15:35:00
11:55 AM,76.8,54.0,45,29.98,10.0,West,9.2,-,N/A,,Clear,270,2013-05-10 15:55:00
12:15 PM,77.4,55.0,46,29.98,10.0,West,5.8,-,N/A,,Scattered Clouds,260,2013-05-10 16:15:00
12:55 PM,77.9,55.9,47,29.97,10.0,WNW,6.9,-,N/A,,Clear,290,2013-05-10 16:55:00
1:15 PM,78.3,55.6,45,29.97,10.0,West,8.1,-,N/A,,Clear,270,2013-05-10 17:15:00
1:35 PM,78.6,56.5,46,29.96,10.0,West,5.8,-,N/A,,Clear,260,2013-05-10 17:35:00
1:55 PM,78.8,54.5,43,29.96,10.0,Calm,Calm,-,N/A,,Clear,0,2013-05-10 17:55:00
2:15 PM,79.3,55.2,43,29.96,10.0,WNW,5.8,-,N/A,,Clear,290,2013-05-10 18:15:00
2:35 PM,80.6,57.0,44,29.96,10.0,West,6.9,-,N/A,,Clear,260,2013-05-10 18:35:00
2:55 PM,80.4,56.8,44,29.95,10.0,Calm,Calm,-,N/A,,Clear,0,2013-05-10 18:55:00
3:15 PM,81.5,54.9,40,29.94,10.0,West,6.9,-,N/A,,Clear,270,2013-05-10 19:15:00
3:35 PM,79.0,56.8,46,29.94,10.0,SE,6.9,-,N/A,,Clear,130,2013-05-10 19:35:00
3:55 PM,77.2,56.3,48,29.94,10.0,SE,11.5,-,N/A,,Clear,140,2013-05-10 19:55:00
4:15 PM,76.5,57.2,51,29.94,10.0,SE,10.4,-,N/A,,Clear,130,2013-05-10 20:15:00
4:35 PM,76.3,58.3,54,29.93,10.0,SE,8.1,-,N/A,,Clear,130,2013-05-10 20:35:00
4:55 PM,76.3,58.8,55,29.93,10.0,SE,6.9,-,N/A,,Clear,130,2013-05-10 20:55:00
5:15 PM,76.6,58.3,53,29.93,10.0,SE,9.2,-,N/A,,Clear,140,2013-05-10 21:15:00
5:35 PM,75.7,58.8,56,29.93,10.0,SE,6.9,-,N/A,,Scattered Clouds,140,2013-05-10 21:35:00
5:55 PM,75.2,59.0,57,29.93,10.0,SE,5.8,-,N/A,,Scattered Clouds,130,2013-05-10 21:55:00
6:15 PM,74.3,59.4,60,29.93,10.0,SE,6.9,-,N/A,,Scattered Clouds,130,2013-05-10 22:15:00
6:35 PM,74.3,59.4,60,29.92,10.0,ESE,4.6,-,N/A,,Mostly Cloudy,120,2013-05-10 22:35:00
6:55 PM,73.2,59.2,61,29.91,10.0,SE,5.8,-,N/A,,Scattered Clouds,130,2013-05-10 22:55:00
7:15 PM,72.5,59.0,62,29.91,10.0,SE,5.8,-,N/A,,Clear,130,2013-05-10 23:15:00
7:35 PM,71.2,58.5,64,29.92,10.0,SE,4.6,-,N/A,,Clear,130,2013-05-10 23:35:00
7:55 PM,70.7,58.6,66,29.91,10.0,East,4.6,-,N/A,,Clear,100,2013-05-10 23:55:00
8:15 PM,70.7,59.0,66,29.91,10.0,East,5.8,-,N/A,,Clear,100,2013-05-11 00:15:00
8:35 PM,70.3,59.0,67,29.91,10.0,Calm,Calm,-,N/A,,Clear,0,2013-05-11 00:35:00
8:55 PM,70.7,58.6,66,29.91,10.0,SSE,4.6,-,N/A,,Clear,150,2013-05-11 00:55:00
9:15 PM,70.2,58.8,67,29.92,10.0,SSE,4.6,-,N/A,,Clear,150,2013-05-11 01:15:00
9:35 PM,70.2,58.8,67,29.92,10.0,South,4.6,-,N/A,,Clear,170,2013-05-11 01:35:00
9:55 PM,70.2,58.1,65,29.92,10.0,South,3.5,-,N/A,,Clear,180,2013-05-11 01:55:00
10:15 PM,70.9,57.2,62,29.91,10.0,South,4.6,-,N/A,,Clear,170,2013-05-11 02:15:00
10:35 PM,70.3,56.7,62,29.91,10.0,South,4.6,-,N/A,,Clear,180,2013-05-11 02:35:00
10:55 PM,70.2,56.5,62,29.90,10.0,South,4.6,-,N/A,Thunderstorm,Clear,170,2013-05-11 02:55:00
11:15 PM,70.3,55.9,60,29.89,10.0,South,4.6,-,N/A,Thunderstorm,Clear,170,2013-05-11 03:15:00
11:35 PM,70.3,55.8,60,29.91,10.0,West,6.9,-,N/A,,Mostly Cloudy,260,2013-05-11 03:35:00
11:55 PM,70.7,55.4,58,29.90,10.0,WSW,8.1,-,N/A,,Mostly Cloudy,240,2013-05-11 03:55:00